createdAt,value
2023-05-07T00:02:16.690Z,1.80
2023-05-07T00:04:43.834Z,1.60
2023-05-07T00:07:10.847Z,1.80
2023-05-07T00:09:38.046Z,2.00
2023-05-07T00:12:05.090Z,1.90
2023-05-07T00:14:32.134Z,1.70
2023-05-07T00:16:59.398Z,1.50
2023-05-07T00:19:26.736Z,3.30
2023-05-07T00:21:55.141Z,2.00
2023-05-07T00:24:22.230Z,2.30
2023-05-07T00:26:49.301Z,2.00
2023-05-07T00:29:16.257Z,1.70
2023-05-07T00:31:43.358Z,2.10
2023-05-07T00:34:10.544Z,2.00
2023-05-07T00:36:37.517Z,2.60
2023-05-07T00:39:04.936Z,2.00
2023-05-07T00:41:32.192Z,2.10
2023-05-07T00:43:59.726Z,1.90
2023-05-07T00:46:27.276Z,2.40
2023-05-07T00:48:54.606Z,2.20
2023-05-07T00:51:21.583Z,2.30
2023-05-07T00:53:48.787Z,2.20
2023-05-07T00:56:15.743Z,2.70
2023-05-07T00:58:43.083Z,2.30
2023-05-07T01:01:10.168Z,2.00
2023-05-07T01:03:37.320Z,2.80
2023-05-07T01:06:04.877Z,2.20
2023-05-07T01:08:32.406Z,2.30
2023-05-07T01:10:59.483Z,2.50
2023-05-07T01:13:26.622Z,2.60
2023-05-07T01:15:53.899Z,2.80
2023-05-07T01:18:21.265Z,2.70
2023-05-07T01:20:48.541Z,2.20
2023-05-07T01:23:15.572Z,2.30
2023-05-07T01:25:42.585Z,2.40
2023-05-07T01:28:09.866Z,2.40
2023-05-07T01:30:37.624Z,2.80
2023-05-07T01:33:10.782Z,2.60
2023-05-07T01:35:44.186Z,2.30
2023-05-07T01:38:11.251Z,2.30
2023-05-07T01:40:38.450Z,2.10
2023-05-07T01:43:05.458Z,2.30
2023-05-07T01:45:33.327Z,2.10
2023-05-07T01:48:00.688Z,2.50
2023-05-07T01:50:27.846Z,2.40
2023-05-07T01:52:54.852Z,4.90
2023-05-07T01:55:22.088Z,2.90
2023-05-07T01:57:49.138Z,2.90
2023-05-07T02:00:16.787Z,2.20
2023-05-07T02:02:43.824Z,2.70
2023-05-07T02:05:17.276Z,2.70
2023-05-07T02:07:47.019Z,2.70
2023-05-07T02:10:14.469Z,2.60
2023-05-07T02:12:41.515Z,2.80
2023-05-07T02:15:08.930Z,2.60
2023-05-07T02:17:36.807Z,2.70
2023-05-07T02:20:05.018Z,2.70
2023-05-07T02:22:31.982Z,2.20
2023-05-07T02:24:58.952Z,2.70
2023-05-07T02:27:25.887Z,2.90
2023-05-07T02:29:53.064Z,3.00
2023-05-07T02:32:20.246Z,2.90
2023-05-07T02:34:47.195Z,2.90
2023-05-07T02:37:14.146Z,2.60
2023-05-07T02:39:41.241Z,2.80
2023-05-07T02:42:08.253Z,2.80
2023-05-07T02:44:36.755Z,3.10
2023-05-07T02:47:05.053Z,3.00
2023-05-07T02:49:32.563Z,2.70
2023-05-07T02:51:59.746Z,3.30
2023-05-07T02:54:26.925Z,3.10
2023-05-07T02:56:53.945Z,3.30
2023-05-07T02:59:20.922Z,3.00
2023-05-07T03:01:48.124Z,2.90
2023-05-07T03:04:16.814Z,2.70
2023-05-07T03:06:43.954Z,2.90
2023-05-07T03:09:10.916Z,3.30
2023-05-07T03:11:38.003Z,3.10
2023-05-07T03:14:04.985Z,2.80
2023-05-07T03:16:32.407Z,3.00
2023-05-07T03:18:59.513Z,3.00
2023-05-07T03:21:27.572Z,3.00
2023-05-07T03:23:54.751Z,2.30
2023-05-07T03:26:22.455Z,2.90
2023-05-07T03:28:49.412Z,2.80
2023-05-07T03:31:17.049Z,2.70
2023-05-07T03:33:54.428Z,3.10
2023-05-07T03:36:21.706Z,4.10
2023-05-07T03:38:49.196Z,3.50
2023-05-07T03:41:18.509Z,2.80
2023-05-07T03:43:45.735Z,2.80
2023-05-07T03:46:12.915Z,2.90
2023-05-07T03:48:40.132Z,3.00
2023-05-07T03:51:07.387Z,3.00
2023-05-07T03:53:34.405Z,3.10
2023-05-07T03:56:01.405Z,3.60
2023-05-07T03:58:29.937Z,3.70
2023-05-07T04:00:58.262Z,3.80
2023-05-07T04:03:27.214Z,4.50
2023-05-07T04:05:54.554Z,2.80
2023-05-07T04:08:21.817Z,3.40
2023-05-07T04:10:55.993Z,3.30
2023-05-07T04:13:23.452Z,2.90
2023-05-07T04:15:52.618Z,3.50
2023-05-07T04:18:19.866Z,2.60
2023-05-07T04:20:48.151Z,3.40
2023-05-07T04:23:15.288Z,2.80
2023-05-07T04:25:42.731Z,3.10
2023-05-07T04:28:20.247Z,3.10
2023-05-07T04:30:47.320Z,3.40
2023-05-07T04:33:16.037Z,3.00
2023-05-07T04:35:43.341Z,2.50
2023-05-07T04:38:10.394Z,3.20
2023-05-07T04:40:38.186Z,3.20
2023-05-07T04:43:05.693Z,3.00
2023-05-07T04:45:34.894Z,3.30
2023-05-07T04:48:02.094Z,3.30
2023-05-07T04:50:29.823Z,3.20
2023-05-07T04:52:58.655Z,3.50
2023-05-07T04:55:25.776Z,3.20
2023-05-07T04:57:53.197Z,3.30
2023-05-07T05:00:21.141Z,3.30
2023-05-07T05:02:48.719Z,3.20
2023-05-07T05:05:18.117Z,3.10
2023-05-07T05:07:45.500Z,3.50
2023-05-07T05:10:13.031Z,3.30
2023-05-07T05:12:40.823Z,3.80
2023-05-07T05:15:08.792Z,3.40
2023-05-07T05:17:36.972Z,3.10
2023-05-07T05:20:05.090Z,3.10
2023-05-07T05:22:32.640Z,3.20
2023-05-07T05:25:00.073Z,3.40
2023-05-07T05:27:27.529Z,2.90
2023-05-07T05:29:54.686Z,3.20
2023-05-07T05:32:21.755Z,2.90
2023-05-07T05:34:49.589Z,3.10
2023-05-07T05:37:16.621Z,3.50
2023-05-07T05:39:45.311Z,3.00
2023-05-07T05:42:12.339Z,3.00
2023-05-07T05:44:39.586Z,2.80
2023-05-07T05:47:06.681Z,3.40
2023-05-07T05:49:33.870Z,3.00
2023-05-07T05:52:01.257Z,3.10
2023-05-07T05:54:28.320Z,2.60
2023-05-07T05:56:55.479Z,3.00
2023-05-07T05:59:22.955Z,2.80
2023-05-07T06:01:50.273Z,2.60
2023-05-07T06:04:17.332Z,3.80
2023-05-07T06:06:44.373Z,3.60
2023-05-07T06:09:11.670Z,3.00
2023-05-07T06:11:42.262Z,2.90
2023-05-07T06:14:09.888Z,2.90
2023-05-07T06:16:39.254Z,3.20
2023-05-07T06:19:06.986Z,2.80
2023-05-07T06:21:34.494Z,2.90
2023-05-07T06:24:01.539Z,3.10
2023-05-07T06:26:28.960Z,2.80
2023-05-07T06:28:56.048Z,2.80
2023-05-07T06:31:23.865Z,2.70
2023-05-07T06:33:57.467Z,3.00
2023-05-07T06:36:30.615Z,2.70
2023-05-07T06:38:58.729Z,2.50
2023-05-07T06:41:27.000Z,2.90
2023-05-07T06:43:55.512Z,2.60
2023-05-07T06:46:46.446Z,2.60
2023-05-07T06:49:14.486Z,2.90
2023-05-07T06:54:04.980Z,3.00
2023-05-07T06:56:33.421Z,2.90
2023-05-07T06:59:01.352Z,2.80
2023-05-07T07:01:31.518Z,3.20
2023-05-07T07:03:58.929Z,2.50
2023-05-07T07:06:26.295Z,2.40
2023-05-07T07:08:53.427Z,2.60
2023-05-07T07:11:21.396Z,2.70
2023-05-07T07:13:48.451Z,2.60
2023-05-07T07:16:15.877Z,2.90
2023-05-07T07:18:43.574Z,3.70
2023-05-07T07:21:10.713Z,2.80
2023-05-07T07:23:37.959Z,2.90
2023-05-07T07:26:07.264Z,3.00
2023-05-07T07:28:34.612Z,2.60
2023-05-07T07:31:01.895Z,3.10
2023-05-07T07:33:30.756Z,2.40
2023-05-07T07:35:58.108Z,3.00
2023-05-07T07:38:25.362Z,2.80
2023-05-07T07:40:52.409Z,3.00
2023-05-07T07:43:20.172Z,2.60
2023-05-07T07:45:47.837Z,2.50
2023-05-07T07:48:15.253Z,2.50
2023-05-07T07:50:45.851Z,2.70
2023-05-07T07:53:15.435Z,3.00
2023-05-07T07:55:43.188Z,2.60
2023-05-07T07:58:11.976Z,2.60
2023-05-07T08:00:39.046Z,2.20
2023-05-07T08:03:07.999Z,2.50
2023-05-07T08:05:39.011Z,2.20
2023-05-07T08:08:06.951Z,2.30
2023-05-07T08:10:35.416Z,2.40
2023-05-07T08:15:34.238Z,2.70
2023-05-07T08:18:02.772Z,2.80
2023-05-07T08:20:31.114Z,2.60
2023-05-07T08:22:58.682Z,2.60
2023-05-07T08:25:27.216Z,2.50
2023-05-07T08:27:55.109Z,2.00
2023-05-07T08:30:22.745Z,2.10
2023-05-07T08:32:50.635Z,2.30
2023-05-07T08:35:17.763Z,2.20
2023-05-07T08:37:45.010Z,2.20
2023-05-07T08:40:14.458Z,3.00
2023-05-07T08:42:42.585Z,2.10
2023-05-07T08:45:11.339Z,2.40
2023-05-07T08:47:53.489Z,2.20
2023-05-07T08:50:21.979Z,1.80
2023-05-07T08:52:50.228Z,1.90
2023-05-07T08:55:17.677Z,2.40
2023-05-07T08:57:45.449Z,2.50
2023-05-07T09:00:14.252Z,2.20
2023-05-07T09:02:41.723Z,2.30
2023-05-07T09:05:10.041Z,2.30
2023-05-07T09:07:37.744Z,2.10
2023-05-07T09:10:06.736Z,2.20
2023-05-07T09:12:36.079Z,2.10
2023-05-07T09:15:04.399Z,2.50
2023-05-07T09:17:32.497Z,2.30
2023-05-07T09:20:08.573Z,2.00
2023-05-07T09:22:37.841Z,2.30
2023-05-07T09:25:08.531Z,2.10
2023-05-07T09:27:36.831Z,2.20
2023-05-07T09:30:24.772Z,2.30
2023-05-07T09:32:52.295Z,2.00
2023-05-07T09:35:22.349Z,2.00
2023-05-07T09:37:53.800Z,2.10
2023-05-07T09:40:22.617Z,2.00
2023-05-07T09:42:50.567Z,2.10
2023-05-07T09:45:30.114Z,2.00
2023-05-07T09:47:58.894Z,1.90
2023-05-07T09:50:28.562Z,1.90
2023-05-07T09:52:56.097Z,1.70
2023-05-07T09:55:23.831Z,1.90
2023-05-07T09:57:52.909Z,2.10
2023-05-07T10:00:21.800Z,1.60
2023-05-07T10:02:50.420Z,1.90
2023-05-07T10:05:19.148Z,2.00
2023-05-07T10:07:46.935Z,1.80
2023-05-07T10:10:15.924Z,2.30
2023-05-07T10:12:43.919Z,1.70
2023-05-07T10:17:45.408Z,2.30
2023-05-07T10:20:13.639Z,1.90
2023-05-07T10:22:44.075Z,2.10
2023-05-07T10:25:19.625Z,1.70
2023-05-07T10:27:47.797Z,1.60
2023-05-07T10:30:39.114Z,2.00
2023-05-07T10:33:07.808Z,2.30
2023-05-07T10:35:41.716Z,1.90
2023-05-07T10:38:09.311Z,1.90
2023-05-07T10:40:38.055Z,1.70
2023-05-07T10:43:09.488Z,1.60
2023-05-07T10:45:42.072Z,1.50
2023-05-07T10:48:29.592Z,1.40
2023-05-07T10:51:19.380Z,2.10
2023-05-07T10:53:46.446Z,1.90
2023-05-07T10:56:18.189Z,1.60
2023-05-07T10:58:50.472Z,1.40
2023-05-07T11:01:59.399Z,1.90
2023-05-07T11:05:24.307Z,1.60
2023-05-07T11:08:13.132Z,1.60
2023-05-07T11:10:58.687Z,1.50
2023-05-07T11:13:46.856Z,1.40
2023-05-07T11:16:43.156Z,1.80
2023-05-07T11:19:49.559Z,1.60
2023-05-07T11:22:46.837Z,1.80
2023-05-07T11:25:34.547Z,3.10
2023-05-07T11:28:31.932Z,1.80
2023-05-07T11:31:02.857Z,1.60
2023-05-07T11:33:33.938Z,2.10
2023-05-07T11:36:03.212Z,1.40
2023-05-07T11:38:37.501Z,2.20
2023-05-07T11:41:05.750Z,1.60
2023-05-07T11:43:33.435Z,1.80
2023-05-07T11:46:10.675Z,1.40
2023-05-07T11:48:39.206Z,2.00
2023-05-07T11:51:07.110Z,1.50
2023-05-07T11:53:39.051Z,1.70
2023-05-07T11:56:10.329Z,1.70
2023-05-07T11:58:37.835Z,1.50
2023-05-07T12:01:05.107Z,1.40
2023-05-07T12:03:35.856Z,1.50
2023-05-07T12:08:31.457Z,1.60
2023-05-07T12:10:58.804Z,1.60
2023-05-07T12:13:27.314Z,1.40
2023-05-07T12:15:55.587Z,1.70
2023-05-07T12:18:23.021Z,1.80
2023-05-07T12:20:50.084Z,1.60
2023-05-07T12:23:17.417Z,1.70
2023-05-07T12:25:47.374Z,2.10
2023-05-07T12:28:17.786Z,1.60
2023-05-07T12:30:46.296Z,1.70
2023-05-07T12:33:17.100Z,1.10
2023-05-07T12:35:44.644Z,1.50
2023-05-07T12:38:13.917Z,1.50
2023-05-07T12:40:40.800Z,2.00
2023-05-07T12:43:08.243Z,1.50
2023-05-07T12:45:39.514Z,1.40
2023-05-07T12:48:06.769Z,1.20
2023-05-07T12:50:35.014Z,1.50
2023-05-07T12:53:06.362Z,1.50
2023-05-07T12:55:34.834Z,1.30
2023-05-07T12:58:03.330Z,1.50
2023-05-07T13:00:37.840Z,1.40
2023-05-07T13:03:05.253Z,1.30
2023-05-07T13:05:32.981Z,1.40
2023-05-07T13:08:00.195Z,1.30
2023-05-07T13:10:27.667Z,1.50
2023-05-07T13:12:54.875Z,1.60
2023-05-07T13:15:22.390Z,1.40
2023-05-07T13:17:49.393Z,1.70
2023-05-07T13:20:16.698Z,1.50
2023-05-07T13:22:43.823Z,1.40
2023-05-07T13:25:11.113Z,1.40
2023-05-07T13:27:38.841Z,1.20
2023-05-07T13:30:07.318Z,1.70
2023-05-07T13:32:34.406Z,1.30
2023-05-07T13:35:02.141Z,1.10
2023-05-07T13:37:29.289Z,1.30
2023-05-07T13:39:56.426Z,1.60
2023-05-07T13:42:23.674Z,1.40
2023-05-07T13:44:51.039Z,1.60
2023-05-07T13:47:18.089Z,1.10
2023-05-07T13:49:45.329Z,1.10
2023-05-07T13:52:12.377Z,1.50
2023-05-07T13:54:39.433Z,1.30
2023-05-07T13:57:06.573Z,1.10
2023-05-07T13:59:34.340Z,1.40
2023-05-07T14:02:01.592Z,1.20
2023-05-07T14:04:29.353Z,1.40
2023-05-07T14:10:21.137Z,1.40
2023-05-07T14:12:48.289Z,1.20
2023-05-07T14:15:16.121Z,1.40
2023-05-07T14:17:43.950Z,1.70
2023-05-07T14:20:13.395Z,1.60
2023-05-07T14:22:40.740Z,1.00
2023-05-07T14:25:08.542Z,1.20
2023-05-07T14:27:35.954Z,1.30
2023-05-07T14:30:03.263Z,1.10
2023-05-07T14:32:30.573Z,1.70
2023-05-07T14:34:57.709Z,1.40
2023-05-07T14:37:25.380Z,1.80
2023-05-07T14:39:52.829Z,1.20
2023-05-07T14:42:19.874Z,1.20
2023-05-07T14:44:49.491Z,1.30
2023-05-07T14:47:18.305Z,1.30
2023-05-07T14:49:46.860Z,1.20
2023-05-07T14:52:14.329Z,1.20
2023-05-07T14:54:41.375Z,1.40
2023-05-07T14:57:10.877Z,1.60
2023-05-07T14:59:39.215Z,1.40
2023-05-07T15:02:09.304Z,1.50
2023-05-07T15:04:37.432Z,1.20
2023-05-07T15:07:04.477Z,1.30
2023-05-07T15:09:31.530Z,1.20
2023-05-07T15:11:58.480Z,1.20
2023-05-07T15:14:25.624Z,1.60
2023-05-07T15:16:52.773Z,1.60
2023-05-07T15:19:19.814Z,1.40
2023-05-07T15:21:46.866Z,1.30
2023-05-07T15:24:14.114Z,1.40
2023-05-07T15:26:41.496Z,1.10
2023-05-07T15:29:11.319Z,1.30
2023-05-07T15:31:40.398Z,1.40
2023-05-07T15:34:07.736Z,1.20
2023-05-07T15:36:34.775Z,1.30
2023-05-07T15:39:03.956Z,1.10
2023-05-07T15:41:31.535Z,1.20
2023-05-07T15:43:58.781Z,1.00
2023-05-07T15:46:26.517Z,1.30
2023-05-07T15:48:54.231Z,1.10
2023-05-07T15:51:22.991Z,1.30
2023-05-07T15:53:50.638Z,1.20
2023-05-07T15:56:17.709Z,1.10
2023-05-07T15:58:44.752Z,1.20
2023-05-07T16:01:11.937Z,1.20
2023-05-07T16:03:40.668Z,1.30
2023-05-07T16:06:08.149Z,1.20
2023-05-07T16:08:35.227Z,1.50
2023-05-07T16:11:02.254Z,1.50
2023-05-07T16:13:29.344Z,1.40
2023-05-07T16:16:00.159Z,1.20
2023-05-07T16:18:27.408Z,1.10
2023-05-07T16:20:54.776Z,1.30
2023-05-07T16:23:21.803Z,1.40
2023-05-07T16:25:49.685Z,1.30
2023-05-07T16:28:16.816Z,1.00
2023-05-07T16:30:44.154Z,1.60
2023-05-07T16:33:11.213Z,1.40
2023-05-07T16:35:38.189Z,1.30
2023-05-07T16:38:10.267Z,1.10
2023-05-07T16:40:40.607Z,1.00
2023-05-07T16:43:07.777Z,1.30
2023-05-07T16:45:34.756Z,1.30
2023-05-07T16:48:03.453Z,1.20
2023-05-07T16:50:30.542Z,1.50
2023-05-07T16:52:57.509Z,1.40
2023-05-07T16:55:24.875Z,1.00
2023-05-07T16:57:51.990Z,1.30
2023-05-07T17:00:19.386Z,1.20
2023-05-07T17:02:47.174Z,1.10
2023-05-07T17:05:14.738Z,1.20
2023-05-07T17:07:42.087Z,1.10
2023-05-07T17:10:09.547Z,1.40
2023-05-07T17:12:37.799Z,1.30
2023-05-07T17:15:05.350Z,1.60
2023-05-07T17:17:33.036Z,1.50
2023-05-07T17:20:00.355Z,1.10
2023-05-07T17:22:27.623Z,1.00
2023-05-07T17:24:54.786Z,1.30
2023-05-07T17:27:21.925Z,1.30
2023-05-07T17:29:48.861Z,1.00
2023-05-07T17:32:16.101Z,1.10
2023-05-07T17:34:43.061Z,1.10
2023-05-07T17:37:10.102Z,1.30
2023-05-07T17:39:37.240Z,1.50
2023-05-07T17:42:04.395Z,1.40
2023-05-07T17:44:31.419Z,1.20
2023-05-07T17:46:58.388Z,1.20
2023-05-07T17:49:25.422Z,1.00
2023-05-07T17:51:55.181Z,1.70
2023-05-07T17:54:24.466Z,1.20
2023-05-07T17:56:51.636Z,1.10
2023-05-07T17:59:18.605Z,1.00
2023-05-07T18:01:45.649Z,1.50
2023-05-07T18:04:12.852Z,1.10
2023-05-07T18:06:41.821Z,1.30
2023-05-07T18:09:08.864Z,1.30
2023-05-07T18:11:37.387Z,1.20
2023-05-07T18:14:04.434Z,1.10
2023-05-07T18:16:31.622Z,1.10
2023-05-07T18:18:58.590Z,1.10
2023-05-07T18:21:25.600Z,1.20
2023-05-07T18:23:52.567Z,1.20
2023-05-07T18:26:19.530Z,1.30
2023-05-07T18:28:46.653Z,1.20
2023-05-07T18:31:13.708Z,1.30
2023-05-07T18:33:40.771Z,1.20
2023-05-07T18:36:07.808Z,1.00
2023-05-07T18:38:34.781Z,1.10
2023-05-07T18:41:04.893Z,1.40
2023-05-07T18:43:32.400Z,1.20
2023-05-07T18:45:59.413Z,1.20
2023-05-07T18:48:26.470Z,1.00
2023-05-07T18:50:53.421Z,1.10
2023-05-07T18:53:20.470Z,1.10
2023-05-07T18:55:53.561Z,1.40
2023-05-07T18:58:20.752Z,1.10
2023-05-07T19:00:48.405Z,1.30
2023-05-07T19:03:16.054Z,1.10
2023-05-07T19:05:44.115Z,1.20
2023-05-07T19:08:11.176Z,1.00
2023-05-07T19:10:40.856Z,1.20
2023-05-07T19:13:07.941Z,1.10
2023-05-07T19:15:34.995Z,1.10
2023-05-07T19:18:02.051Z,1.30
2023-05-07T19:20:29.409Z,1.30
2023-05-07T19:22:56.476Z,0.90
2023-05-07T19:25:23.565Z,1.20
2023-05-07T19:27:51.373Z,1.20
2023-05-07T19:30:18.885Z,1.20
2023-05-07T19:32:46.150Z,1.70
2023-05-07T19:35:13.538Z,1.90
2023-05-07T19:37:40.744Z,2.30
2023-05-07T19:40:09.528Z,2.00
2023-05-07T19:42:36.573Z,2.10
2023-05-07T19:45:04.722Z,2.00
2023-05-07T19:47:31.784Z,2.10
2023-05-07T19:49:58.759Z,2.40
2023-05-07T19:52:26.538Z,2.10
2023-05-07T19:54:53.511Z,1.90
2023-05-07T19:57:20.489Z,1.80
2023-05-07T19:59:47.440Z,2.00
2023-05-07T20:02:15.455Z,1.60
2023-05-07T20:04:42.509Z,1.40
2023-05-07T20:07:09.467Z,1.60
2023-05-07T20:09:36.462Z,1.60
2023-05-07T20:12:03.603Z,1.50
2023-05-07T20:14:30.611Z,1.50
2023-05-07T20:16:57.582Z,1.30
2023-05-07T20:19:25.160Z,1.60
2023-05-07T20:21:53.011Z,1.80
2023-05-07T20:24:20.022Z,1.20
2023-05-07T20:26:47.002Z,1.30
2023-05-07T20:29:13.949Z,1.50
2023-05-07T20:31:41.182Z,1.70
2023-05-07T20:34:08.334Z,1.60
2023-05-07T20:36:36.136Z,1.70
2023-05-07T20:39:04.352Z,1.60
2023-05-07T20:41:31.405Z,1.70
2023-05-07T20:43:58.642Z,1.70
2023-05-07T20:46:27.491Z,1.90
2023-05-07T20:48:54.928Z,1.40
2023-05-07T20:51:21.876Z,1.70
2023-05-07T20:53:48.913Z,1.80
2023-05-07T20:56:16.154Z,1.60
2023-05-07T20:58:43.098Z,1.40
2023-05-07T21:01:10.145Z,1.70
2023-05-07T21:03:37.140Z,1.70
2023-05-07T21:06:04.480Z,1.90
2023-05-07T21:08:31.482Z,1.60
2023-05-07T21:10:58.439Z,1.50
2023-05-07T21:13:25.511Z,1.60
2023-05-07T21:15:53.209Z,1.80
2023-05-07T21:18:20.212Z,1.80
2023-05-07T21:20:47.173Z,1.80
2023-05-07T21:23:14.120Z,1.50
2023-05-07T21:25:41.689Z,1.80
2023-05-07T21:28:09.450Z,1.80
2023-05-07T21:30:37.156Z,1.60
2023-05-07T21:33:06.237Z,1.60
2023-05-07T21:35:38.247Z,1.50
2023-05-07T21:38:05.274Z,1.40
2023-05-07T21:40:32.275Z,1.80
2023-05-07T21:43:00.721Z,1.70
2023-05-07T21:45:27.740Z,2.30
2023-05-07T21:47:54.875Z,1.90
2023-05-07T21:50:22.270Z,1.70
2023-05-07T21:52:49.494Z,2.00
2023-05-07T21:55:17.793Z,1.90
2023-05-07T21:57:53.757Z,2.50
2023-05-07T22:00:29.605Z,1.70
2023-05-07T22:02:56.639Z,1.70
2023-05-07T22:05:23.768Z,2.50
2023-05-07T22:07:50.985Z,1.30
2023-05-07T22:10:22.853Z,1.70
2023-05-07T22:12:50.418Z,1.60
2023-05-07T22:15:17.696Z,1.40
2023-05-07T22:17:44.758Z,1.60
2023-05-07T22:20:12.209Z,1.80
2023-05-07T22:22:51.718Z,2.00
2023-05-07T22:25:20.217Z,1.70
2023-05-07T22:27:47.174Z,1.60
2023-05-07T22:30:14.496Z,1.80
2023-05-07T22:32:45.120Z,1.70
2023-05-07T22:35:12.246Z,1.90
2023-05-07T22:37:39.447Z,2.00
2023-05-07T22:40:07.097Z,1.90
2023-05-07T22:42:34.076Z,1.90
2023-05-07T22:45:01.054Z,1.50
2023-05-07T22:47:31.399Z,1.70
2023-05-07T22:49:58.494Z,1.70
2023-05-07T22:52:25.476Z,1.90
2023-05-07T22:54:52.452Z,1.60
2023-05-07T22:57:19.441Z,2.00
2023-05-07T22:59:46.451Z,2.40
2023-05-07T23:02:13.491Z,2.40
2023-05-07T23:04:40.540Z,1.90
2023-05-07T23:07:07.477Z,1.70
2023-05-07T23:09:34.522Z,1.90
2023-05-07T23:12:01.479Z,1.70
2023-05-07T23:14:28.414Z,1.90
2023-05-07T23:16:55.486Z,1.90
2023-05-07T23:19:22.519Z,1.90
2023-05-07T23:21:49.534Z,1.90
2023-05-07T23:24:16.552Z,1.70
2023-05-07T23:26:43.541Z,1.80
2023-05-07T23:29:10.504Z,2.20
2023-05-07T23:31:37.710Z,2.00
2023-05-07T23:34:04.740Z,1.90
2023-05-07T23:36:32.770Z,1.50
2023-05-07T23:38:59.725Z,2.00
2023-05-07T23:41:26.769Z,1.90
2023-05-07T23:43:53.828Z,2.30
2023-05-07T23:46:20.898Z,1.90
2023-05-07T23:48:47.870Z,2.20
2023-05-07T23:51:14.810Z,2.10
2023-05-07T23:53:42.026Z,1.80
2023-05-07T23:56:09.020Z,2.10
2023-05-07T23:58:35.958Z,2.20
